sensor_id;sensor_type;location;lat;lon;timestamp;P1;durP1;ratioP1;P2;durP2;ratioP2
45905;SDS011;31619;49.008;12.106;2022-07-22T00:01:03;13.57;;;11.52;;
45905;SDS011;31619;49.008;12.106;2022-07-22T00:03:29;12.98;;;11.68;;
45905;SDS011;31619;49.008;12.106;2022-07-22T00:05:54;12.82;;;11.68;;
45905;SDS011;31619;49.008;12.106;2022-07-22T00:08:20;13.13;;;11.95;;
45905;SDS011;31619;49.008;12.106;2022-07-22T00:10:45;13.35;;;12.13;;
45905;SDS011;31619;49.008;12.106;2022-07-22T00:13:11;13.25;;;11.88;;
45905;SDS011;31619;49.008;12.106;2022-07-22T00:15:37;12.45;;;11.38;;
45905;SDS011;31619;49.008;12.106;2022-07-22T00:18:03;12.32;;;11.32;;
45905;SDS011;31619;49.008;12.106;2022-07-22T00:20:28;12.98;;;11.68;;
45905;SDS011;31619;49.008;12.106;2022-07-22T00:22:54;13.25;;;11.80;;
45905;SDS011;31619;49.008;12.106;2022-07-22T00:25:20;14.50;;;10.93;;
45905;SDS011;31619;49.008;12.106;2022-07-22T00:27:45;12.32;;;11.30;;
45905;SDS011;31619;49.008;12.106;2022-07-22T00:30:11;12.40;;;11.07;;
45905;SDS011;31619;49.008;12.106;2022-07-22T00:32:37;12.90;;;11.68;;
45905;SDS011;31619;49.008;12.106;2022-07-22T00:35:02;12.85;;;11.75;;
45905;SDS011;31619;49.008;12.106;2022-07-22T00:37:28;13.60;;;12.48;;
45905;SDS011;31619;49.008;12.106;2022-07-22T00:39:54;12.88;;;11.77;;
45905;SDS011;31619;49.008;12.106;2022-07-22T00:42:20;12.30;;;11.30;;
45905;SDS011;31619;49.008;12.106;2022-07-22T00:44:46;13.35;;;12.15;;
45905;SDS011;31619;49.008;12.106;2022-07-22T00:47:11;12.25;;;11.13;;
45905;SDS011;31619;49.008;12.106;2022-07-22T00:49:37;12.38;;;11.20;;
45905;SDS011;31619;49.008;12.106;2022-07-22T00:52:03;14.35;;;12.10;;
45905;SDS011;31619;49.008;12.106;2022-07-22T00:54:30;11.88;;;10.90;;
45905;SDS011;31619;49.008;12.106;2022-07-22T00:56:57;12.52;;;11.30;;
45905;SDS011;31619;49.008;12.106;2022-07-22T00:59:22;11.80;;;10.63;;
45905;SDS011;31619;49.008;12.106;2022-07-22T01:01:48;13.05;;;11.95;;
45905;SDS011;31619;49.008;12.106;2022-07-22T01:04:14;13.32;;;11.95;;
45905;SDS011;31619;49.008;12.106;2022-07-22T01:06:40;12.60;;;11.60;;
45905;SDS011;31619;49.008;12.106;2022-07-22T01:09:09;13.30;;;11.82;;
45905;SDS011;31619;49.008;12.106;2022-07-22T01:11:36;12.45;;;11.35;;
45905;SDS011;31619;49.008;12.106;2022-07-22T01:14:02;13.25;;;11.90;;
45905;SDS011;31619;49.008;12.106;2022-07-22T01:16:28;12.82;;;11.68;;
45905;SDS011;31619;49.008;12.106;2022-07-22T01:18:53;12.85;;;11.63;;
45905;SDS011;31619;49.008;12.106;2022-07-22T01:21:19;13.00;;;11.70;;
45905;SDS011;31619;49.008;12.106;2022-07-22T01:23:45;13.38;;;11.25;;
45905;SDS011;31619;49.008;12.106;2022-07-22T01:26:11;12.90;;;11.73;;
45905;SDS011;31619;49.008;12.106;2022-07-22T01:28:38;13.98;;;12.57;;
45905;SDS011;31619;49.008;12.106;2022-07-22T01:31:04;13.30;;;12.00;;
45905;SDS011;31619;49.008;12.106;2022-07-22T01:33:29;13.05;;;11.88;;
45905;SDS011;31619;49.008;12.106;2022-07-22T01:35:55;13.02;;;11.93;;
45905;SDS011;31619;49.008;12.106;2022-07-22T01:38:21;13.15;;;11.95;;
45905;SDS011;31619;49.008;12.106;2022-07-22T01:40:47;14.07;;;12.65;;
45905;SDS011;31619;49.008;12.106;2022-07-22T01:43:13;13.00;;;11.88;;
45905;SDS011;31619;49.008;12.106;2022-07-22T01:45:42;13.98;;;12.75;;
45905;SDS011;31619;49.008;12.106;2022-07-22T01:48:12;12.82;;;11.55;;
45905;SDS011;31619;49.008;12.106;2022-07-22T01:50:38;13.57;;;12.32;;
45905;SDS011;31619;49.008;12.106;2022-07-22T01:53:04;13.27;;;12.07;;
45905;SDS011;31619;49.008;12.106;2022-07-22T01:55:30;14.18;;;12.75;;
45905;SDS011;31619;49.008;12.106;2022-07-22T01:57:55;13.77;;;12.57;;
45905;SDS011;31619;49.008;12.106;2022-07-22T02:00:21;13.05;;;11.85;;
45905;SDS011;31619;49.008;12.106;2022-07-22T02:02:47;14.73;;;13.30;;
45905;SDS011;31619;49.008;12.106;2022-07-22T02:05:12;14.00;;;12.60;;
45905;SDS011;31619;49.008;12.106;2022-07-22T02:07:38;13.90;;;12.60;;
45905;SDS011;31619;49.008;12.106;2022-07-22T02:10:05;13.98;;;12.68;;
45905;SDS011;31619;49.008;12.106;2022-07-22T02:12:31;13.63;;;12.43;;
45905;SDS011;31619;49.008;12.106;2022-07-22T02:14:57;14.20;;;12.88;;
45905;SDS011;31619;49.008;12.106;2022-07-22T02:17:22;14.90;;;13.60;;
45905;SDS011;31619;49.008;12.106;2022-07-22T02:19:48;14.15;;;12.75;;
45905;SDS011;31619;49.008;12.106;2022-07-22T02:22:13;15.43;;;14.02;;
45905;SDS011;31619;49.008;12.106;2022-07-22T02:24:39;16.88;;;15.38;;
45905;SDS011;31619;49.008;12.106;2022-07-22T02:27:05;13.60;;;12.40;;
45905;SDS011;31619;49.008;12.106;2022-07-22T02:29:31;15.43;;;14.00;;
45905;SDS011;31619;49.008;12.106;2022-07-22T02:31:58;16.13;;;14.57;;
45905;SDS011;31619;49.008;12.106;2022-07-22T02:34:23;15.90;;;14.40;;
45905;SDS011;31619;49.008;12.106;2022-07-22T02:36:49;14.93;;;13.52;;
45905;SDS011;31619;49.008;12.106;2022-07-22T02:39:15;15.63;;;14.13;;
45905;SDS011;31619;49.008;12.106;2022-07-22T02:41:41;13.95;;;12.80;;
45905;SDS011;31619;49.008;12.106;2022-07-22T02:44:06;15.88;;;14.25;;
45905;SDS011;31619;49.008;12.106;2022-07-22T02:46:32;15.63;;;14.13;;
45905;SDS011;31619;49.008;12.106;2022-07-22T02:48:58;15.95;;;14.45;;
45905;SDS011;31619;49.008;12.106;2022-07-22T02:51:23;15.77;;;14.20;;
45905;SDS011;31619;49.008;12.106;2022-07-22T02:53:49;15.23;;;13.90;;
45905;SDS011;31619;49.008;12.106;2022-07-22T02:56:15;17.95;;;15.52;;
45905;SDS011;31619;49.008;12.106;2022-07-22T02:58:41;14.88;;;13.68;;
45905;SDS011;31619;49.008;12.106;2022-07-22T03:01:07;14.68;;;13.38;;
45905;SDS011;31619;49.008;12.106;2022-07-22T03:03:33;16.17;;;14.32;;
45905;SDS011;31619;49.008;12.106;2022-07-22T03:05:59;16.30;;;14.77;;
45905;SDS011;31619;49.008;12.106;2022-07-22T03:08:25;14.63;;;13.35;;
45905;SDS011;31619;49.008;12.106;2022-07-22T03:10:51;16.08;;;14.60;;
45905;SDS011;31619;49.008;12.106;2022-07-22T03:13:17;16.52;;;15.05;;
45905;SDS011;31619;49.008;12.106;2022-07-22T03:15:43;16.52;;;14.82;;
45905;SDS011;31619;49.008;12.106;2022-07-22T03:18:08;17.02;;;15.35;;
45905;SDS011;31619;49.008;12.106;2022-07-22T03:20:34;16.77;;;15.27;;
45905;SDS011;31619;49.008;12.106;2022-07-22T03:23:00;17.15;;;15.38;;
45905;SDS011;31619;49.008;12.106;2022-07-22T03:25:25;16.23;;;14.73;;
45905;SDS011;31619;49.008;12.106;2022-07-22T03:27:51;17.85;;;16.10;;
45905;SDS011;31619;49.008;12.106;2022-07-22T03:30:17;16.80;;;15.20;;
45905;SDS011;31619;49.008;12.106;2022-07-22T03:32:42;17.70;;;16.10;;
45905;SDS011;31619;49.008;12.106;2022-07-22T03:35:10;17.38;;;15.68;;
45905;SDS011;31619;49.008;12.106;2022-07-22T03:37:39;16.50;;;15.10;;
45905;SDS011;31619;49.008;12.106;2022-07-22T03:40:05;18.42;;;16.63;;
45905;SDS011;31619;49.008;12.106;2022-07-22T03:42:31;17.52;;;15.90;;
45905;SDS011;31619;49.008;12.106;2022-07-22T03:44:57;18.25;;;16.42;;
45905;SDS011;31619;49.008;12.106;2022-07-22T03:47:23;17.80;;;16.10;;
45905;SDS011;31619;49.008;12.106;2022-07-22T03:49:49;18.38;;;16.67;;
45905;SDS011;31619;49.008;12.106;2022-07-22T03:52:15;18.95;;;17.15;;
45905;SDS011;31619;49.008;12.106;2022-07-22T03:54:41;18.27;;;16.48;;
45905;SDS011;31619;49.008;12.106;2022-07-22T03:57:08;18.63;;;16.23;;
45905;SDS011;31619;49.008;12.106;2022-07-22T03:59:34;17.33;;;15.73;;
45905;SDS011;31619;49.008;12.106;2022-07-22T04:02:00;17.75;;;16.20;;
45905;SDS011;31619;49.008;12.106;2022-07-22T04:04:26;17.90;;;16.10;;
45905;SDS011;31619;49.008;12.106;2022-07-22T04:06:51;18.33;;;16.40;;
45905;SDS011;31619;49.008;12.106;2022-07-22T04:09:17;17.33;;;15.35;;
45905;SDS011;31619;49.008;12.106;2022-07-22T04:11:43;18.65;;;16.63;;
45905;SDS011;31619;49.008;12.106;2022-07-22T04:14:09;19.45;;;15.95;;
45905;SDS011;31619;49.008;12.106;2022-07-22T04:16:35;17.70;;;15.93;;
45905;SDS011;31619;49.008;12.106;2022-07-22T04:19:01;17.20;;;15.60;;
45905;SDS011;31619;49.008;12.106;2022-07-22T04:21:27;18.83;;;16.98;;
45905;SDS011;31619;49.008;12.106;2022-07-22T04:23:53;18.70;;;17.00;;
45905;SDS011;31619;49.008;12.106;2022-07-22T04:26:19;17.10;;;15.32;;
45905;SDS011;31619;49.008;12.106;2022-07-22T04:28:45;16.55;;;14.95;;
45905;SDS011;31619;49.008;12.106;2022-07-22T04:31:10;19.20;;;17.17;;
45905;SDS011;31619;49.008;12.106;2022-07-22T04:33:36;16.70;;;15.32;;
45905;SDS011;31619;49.008;12.106;2022-07-22T04:36:02;19.38;;;17.38;;
45905;SDS011;31619;49.008;12.106;2022-07-22T04:38:28;18.52;;;16.85;;
45905;SDS011;31619;49.008;12.106;2022-07-22T04:40:54;17.35;;;15.73;;
45905;SDS011;31619;49.008;12.106;2022-07-22T04:43:19;18.10;;;16.65;;
45905;SDS011;31619;49.008;12.106;2022-07-22T04:45:45;18.27;;;16.77;;
45905;SDS011;31619;49.008;12.106;2022-07-22T04:48:11;15.85;;;14.35;;
45905;SDS011;31619;49.008;12.106;2022-07-22T04:50:36;17.00;;;15.10;;
45905;SDS011;31619;49.008;12.106;2022-07-22T04:53:02;17.38;;;15.77;;
45905;SDS011;31619;49.008;12.106;2022-07-22T04:55:28;17.77;;;16.17;;
45905;SDS011;31619;49.008;12.106;2022-07-22T04:57:54;17.38;;;15.68;;
45905;SDS011;31619;49.008;12.106;2022-07-22T05:00:19;18.33;;;15.63;;
45905;SDS011;31619;49.008;12.106;2022-07-22T05:02:45;16.42;;;14.98;;
45905;SDS011;31619;49.008;12.106;2022-07-22T05:05:11;18.38;;;16.52;;
45905;SDS011;31619;49.008;12.106;2022-07-22T05:07:36;16.10;;;14.70;;
45905;SDS011;31619;49.008;12.106;2022-07-22T05:10:02;19.02;;;17.15;;
45905;SDS011;31619;49.008;12.106;2022-07-22T05:12:28;21.85;;;16.70;;
45905;SDS011;31619;49.008;12.106;2022-07-22T05:14:54;16.30;;;14.75;;
45905;SDS011;31619;49.008;12.106;2022-07-22T05:17:19;17.02;;;15.48;;
45905;SDS011;31619;49.008;12.106;2022-07-22T05:19:45;18.52;;;16.83;;
45905;SDS011;31619;49.008;12.106;2022-07-22T05:22:10;18.10;;;16.33;;
45905;SDS011;31619;49.008;12.106;2022-07-22T05:24:36;18.05;;;16.45;;
45905;SDS011;31619;49.008;12.106;2022-07-22T05:27:02;18.75;;;16.92;;
45905;SDS011;31619;49.008;12.106;2022-07-22T05:29:27;17.40;;;15.80;;
45905;SDS011;31619;49.008;12.106;2022-07-22T05:31:53;18.75;;;17.00;;
45905;SDS011;31619;49.008;12.106;2022-07-22T05:34:19;18.90;;;17.15;;
45905;SDS011;31619;49.008;12.106;2022-07-22T05:36:44;17.38;;;15.65;;
45905;SDS011;31619;49.008;12.106;2022-07-22T05:39:10;17.25;;;15.45;;
45905;SDS011;31619;49.008;12.106;2022-07-22T05:41:36;17.08;;;15.43;;
45905;SDS011;31619;49.008;12.106;2022-07-22T05:44:02;17.73;;;16.23;;
45905;SDS011;31619;49.008;12.106;2022-07-22T05:46:28;19.92;;;18.20;;
45905;SDS011;31619;49.008;12.106;2022-07-22T05:48:54;18.25;;;16.58;;
45905;SDS011;31619;49.008;12.106;2022-07-22T05:51:20;19.05;;;17.35;;
45905;SDS011;31619;49.008;12.106;2022-07-22T05:53:46;17.58;;;15.90;;
45905;SDS011;31619;49.008;12.106;2022-07-22T05:56:11;18.77;;;17.20;;
45905;SDS011;31619;49.008;12.106;2022-07-22T05:58:38;19.30;;;17.58;;
45905;SDS011;31619;49.008;12.106;2022-07-22T06:01:05;18.58;;;16.77;;
45905;SDS011;31619;49.008;12.106;2022-07-22T06:03:31;17.80;;;16.30;;
45905;SDS011;31619;49.008;12.106;2022-07-22T06:05:57;19.38;;;17.63;;
45905;SDS011;31619;49.008;12.106;2022-07-22T06:08:22;20.88;;;18.80;;
45905;SDS011;31619;49.008;12.106;2022-07-22T06:10:48;17.67;;;16.08;;
45905;SDS011;31619;49.008;12.106;2022-07-22T06:13:13;17.73;;;16.13;;
45905;SDS011;31619;49.008;12.106;2022-07-22T06:15:39;20.67;;;18.70;;
45905;SDS011;31619;49.008;12.106;2022-07-22T06:18:05;22.35;;;20.17;;
45905;SDS011;31619;49.008;12.106;2022-07-22T06:20:31;20.13;;;18.27;;
45905;SDS011;31619;49.008;12.106;2022-07-22T06:22:56;19.83;;;17.92;;
45905;SDS011;31619;49.008;12.106;2022-07-22T06:25:22;20.33;;;18.48;;
45905;SDS011;31619;49.008;12.106;2022-07-22T06:27:48;20.02;;;18.17;;
45905;SDS011;31619;49.008;12.106;2022-07-22T06:30:13;20.58;;;18.77;;
45905;SDS011;31619;49.008;12.106;2022-07-22T06:32:39;21.65;;;19.48;;
45905;SDS011;31619;49.008;12.106;2022-07-22T06:35:05;21.05;;;18.83;;
45905;SDS011;31619;49.008;12.106;2022-07-22T06:37:31;21.17;;;19.08;;
45905;SDS011;31619;49.008;12.106;2022-07-22T06:39:56;20.63;;;18.63;;
45905;SDS011;31619;49.008;12.106;2022-07-22T06:42:22;20.40;;;18.50;;
45905;SDS011;31619;49.008;12.106;2022-07-22T06:44:48;19.60;;;18.00;;
45905;SDS011;31619;49.008;12.106;2022-07-22T06:47:14;20.40;;;18.50;;
45905;SDS011;31619;49.008;12.106;2022-07-22T06:49:39;21.85;;;19.95;;
45905;SDS011;31619;49.008;12.106;2022-07-22T06:52:05;19.73;;;17.92;;
45905;SDS011;31619;49.008;12.106;2022-07-22T06:54:31;22.20;;;20.13;;
45905;SDS011;31619;49.008;12.106;2022-07-22T06:56:56;19.27;;;17.63;;
45905;SDS011;31619;49.008;12.106;2022-07-22T06:59:23;20.95;;;18.92;;
45905;SDS011;31619;49.008;12.106;2022-07-22T07:01:48;20.23;;;18.25;;
45905;SDS011;31619;49.008;12.106;2022-07-22T07:04:15;20.48;;;18.48;;
45905;SDS011;31619;49.008;12.106;2022-07-22T07:06:41;16.45;;;15.18;;
45905;SDS011;31619;49.008;12.106;2022-07-22T07:09:07;19.73;;;18.10;;
45905;SDS011;31619;49.008;12.106;2022-07-22T07:11:33;20.65;;;18.30;;
45905;SDS011;31619;49.008;12.106;2022-07-22T07:13:59;20.40;;;18.38;;
45905;SDS011;31619;49.008;12.106;2022-07-22T07:16:25;21.75;;;19.52;;
45905;SDS011;31619;49.008;12.106;2022-07-22T07:18:51;17.25;;;15.75;;
45905;SDS011;31619;49.008;12.106;2022-07-22T07:21:16;19.63;;;17.85;;
45905;SDS011;31619;49.008;12.106;2022-07-22T07:23:42;18.52;;;16.73;;
45905;SDS011;31619;49.008;12.106;2022-07-22T07:26:08;19.48;;;17.88;;
45905;SDS011;31619;49.008;12.106;2022-07-22T07:28:34;18.77;;;16.92;;
45905;SDS011;31619;49.008;12.106;2022-07-22T07:30:59;17.65;;;16.05;;
45905;SDS011;31619;49.008;12.106;2022-07-22T07:33:26;19.00;;;17.33;;
45905;SDS011;31619;49.008;12.106;2022-07-22T07:35:51;20.63;;;18.42;;
45905;SDS011;31619;49.008;12.106;2022-07-22T07:38:17;15.88;;;14.50;;
45905;SDS011;31619;49.008;12.106;2022-07-22T07:40:43;18.88;;;17.27;;
45905;SDS011;31619;49.008;12.106;2022-07-22T07:43:09;19.48;;;17.58;;
45905;SDS011;31619;49.008;12.106;2022-07-22T07:45:34;20.63;;;18.42;;
45905;SDS011;31619;49.008;12.106;2022-07-22T07:48:01;19.65;;;17.80;;
45905;SDS011;31619;49.008;12.106;2022-07-22T07:50:28;19.65;;;18.05;;
45905;SDS011;31619;49.008;12.106;2022-07-22T07:52:54;15.00;;;13.60;;
45905;SDS011;31619;49.008;12.106;2022-07-22T07:55:20;18.02;;;16.23;;
45905;SDS011;31619;49.008;12.106;2022-07-22T07:57:47;17.20;;;15.80;;
45905;SDS011;31619;49.008;12.106;2022-07-22T08:00:14;18.05;;;16.35;;
45905;SDS011;31619;49.008;12.106;2022-07-22T08:02:41;16.70;;;15.10;;
45905;SDS011;31619;49.008;12.106;2022-07-22T08:05:07;16.70;;;15.30;;
45905;SDS011;31619;49.008;12.106;2022-07-22T08:07:34;16.60;;;15.07;;
45905;SDS011;31619;49.008;12.106;2022-07-22T08:10:00;16.10;;;14.70;;
45905;SDS011;31619;49.008;12.106;2022-07-22T08:12:25;15.13;;;13.82;;
45905;SDS011;31619;49.008;12.106;2022-07-22T08:14:51;15.65;;;14.25;;
45905;SDS011;31619;49.008;12.106;2022-07-22T08:17:17;14.52;;;13.32;;
45905;SDS011;31619;49.008;12.106;2022-07-22T08:19:42;14.35;;;12.90;;
45905;SDS011;31619;49.008;12.106;2022-07-22T08:22:08;13.80;;;12.55;;
45905;SDS011;31619;49.008;12.106;2022-07-22T08:24:34;12.05;;;11.13;;
45905;SDS011;31619;49.008;12.106;2022-07-22T08:26:59;14.15;;;12.75;;
45905;SDS011;31619;49.008;12.106;2022-07-22T08:29:26;10.52;;;9.73;;
45905;SDS011;31619;49.008;12.106;2022-07-22T08:31:52;12.15;;;11.05;;
45905;SDS011;31619;49.008;12.106;2022-07-22T08:34:18;12.27;;;11.07;;
45905;SDS011;31619;49.008;12.106;2022-07-22T08:36:43;12.30;;;11.32;;
45905;SDS011;31619;49.008;12.106;2022-07-22T08:39:09;11.10;;;10.25;;
45905;SDS011;31619;49.008;12.106;2022-07-22T08:41:35;13.13;;;11.82;;
45905;SDS011;31619;49.008;12.106;2022-07-22T08:44:03;9.95;;;9.02;;
45905;SDS011;31619;49.008;12.106;2022-07-22T08:46:32;11.95;;;9.50;;
45905;SDS011;31619;49.008;12.106;2022-07-22T08:48:58;10.75;;;9.65;;
45905;SDS011;31619;49.008;12.106;2022-07-22T08:51:25;10.30;;;9.30;;
45905;SDS011;31619;49.008;12.106;2022-07-22T08:53:51;10.18;;;9.38;;
45905;SDS011;31619;49.008;12.106;2022-07-22T08:56:17;9.98;;;9.05;;
45905;SDS011;31619;49.008;12.106;2022-07-22T08:58:43;8.98;;;8.00;;
45905;SDS011;31619;49.008;12.106;2022-07-22T09:01:13;8.57;;;7.97;;
45905;SDS011;31619;49.008;12.106;2022-07-22T09:03:46;7.78;;;7.20;;
45905;SDS011;31619;49.008;12.106;2022-07-22T09:06:15;8.18;;;7.55;;
45905;SDS011;31619;49.008;12.106;2022-07-22T09:11:25;8.23;;;7.43;;
45905;SDS011;31619;49.008;12.106;2022-07-22T09:13:53;8.00;;;7.30;;
45905;SDS011;31619;49.008;12.106;2022-07-22T09:16:43;8.35;;;7.55;;
45905;SDS011;31619;49.008;12.106;2022-07-22T09:19:11;8.25;;;7.55;;
45905;SDS011;31619;49.008;12.106;2022-07-22T09:21:37;8.75;;;7.97;;
45905;SDS011;31619;49.008;12.106;2022-07-22T09:24:07;7.75;;;7.20;;
45905;SDS011;31619;49.008;12.106;2022-07-22T09:26:35;9.10;;;8.40;;
45905;SDS011;31619;49.008;12.106;2022-07-22T09:29:02;10.52;;;9.50;;
45905;SDS011;31619;49.008;12.106;2022-07-22T09:31:36;9.32;;;8.63;;
45905;SDS011;31619;49.008;12.106;2022-07-22T09:34:02;9.70;;;8.68;;
45905;SDS011;31619;49.008;12.106;2022-07-22T09:36:29;8.75;;;7.97;;
45905;SDS011;31619;49.008;12.106;2022-07-22T09:38:56;9.25;;;8.52;;
45905;SDS011;31619;49.008;12.106;2022-07-22T09:41:22;8.90;;;8.10;;
45905;SDS011;31619;49.008;12.106;2022-07-22T09:43:48;7.68;;;7.18;;
45905;SDS011;31619;49.008;12.106;2022-07-22T09:46:17;8.18;;;7.57;;
45905;SDS011;31619;49.008;12.106;2022-07-22T09:48:59;8.27;;;7.50;;
45905;SDS011;31619;49.008;12.106;2022-07-22T09:51:25;7.70;;;7.10;;
45905;SDS011;31619;49.008;12.106;2022-07-22T09:53:50;7.70;;;7.05;;
45905;SDS011;31619;49.008;12.106;2022-07-22T09:56:17;8.25;;;7.63;;
45905;SDS011;31619;49.008;12.106;2022-07-22T09:58:43;7.85;;;7.07;;
45905;SDS011;31619;49.008;12.106;2022-07-22T10:01:08;7.00;;;6.60;;
45905;SDS011;31619;49.008;12.106;2022-07-22T10:03:35;7.32;;;6.68;;
45905;SDS011;31619;49.008;12.106;2022-07-22T10:06:02;8.23;;;7.63;;
45905;SDS011;31619;49.008;12.106;2022-07-22T10:08:30;7.10;;;6.60;;
45905;SDS011;31619;49.008;12.106;2022-07-22T10:10:58;6.35;;;5.80;;
45905;SDS011;31619;49.008;12.106;2022-07-22T10:13:25;7.72;;;7.07;;
45905;SDS011;31619;49.008;12.106;2022-07-22T10:15:51;6.72;;;6.25;;
45905;SDS011;31619;49.008;12.106;2022-07-22T10:18:18;6.97;;;6.30;;
45905;SDS011;31619;49.008;12.106;2022-07-22T10:20:45;6.88;;;6.28;;
45905;SDS011;31619;49.008;12.106;2022-07-22T10:23:11;6.70;;;6.22;;
45905;SDS011;31619;49.008;12.106;2022-07-22T10:25:48;7.10;;;6.50;;
45905;SDS011;31619;49.008;12.106;2022-07-22T10:28:21;6.40;;;5.90;;
45905;SDS011;31619;49.008;12.106;2022-07-22T10:30:47;6.30;;;5.78;;
45905;SDS011;31619;49.008;12.106;2022-07-22T10:33:16;6.22;;;5.70;;
45905;SDS011;31619;49.008;12.106;2022-07-22T10:38:16;6.80;;;6.30;;
45905;SDS011;31619;49.008;12.106;2022-07-22T10:41:03;6.07;;;5.63;;
45905;SDS011;31619;49.008;12.106;2022-07-22T10:46:09;6.95;;;6.22;;
45905;SDS011;31619;49.008;12.106;2022-07-22T10:51:07;6.25;;;5.75;;
45905;SDS011;31619;49.008;12.106;2022-07-22T10:56:39;6.30;;;5.88;;
45905;SDS011;31619;49.008;12.106;2022-07-22T10:59:10;6.90;;;6.47;;
45905;SDS011;31619;49.008;12.106;2022-07-22T11:01:42;5.90;;;5.40;;
45905;SDS011;31619;49.008;12.106;2022-07-22T11:04:23;6.63;;;5.68;;
45905;SDS011;31619;49.008;12.106;2022-07-22T11:06:51;6.03;;;5.65;;
45905;SDS011;31619;49.008;12.106;2022-07-22T11:09:19;6.07;;;5.65;;
45905;SDS011;31619;49.008;12.106;2022-07-22T11:11:51;5.85;;;5.35;;
45905;SDS011;31619;49.008;12.106;2022-07-22T11:14:24;5.47;;;5.18;;
45905;SDS011;31619;49.008;12.106;2022-07-22T11:17:03;6.05;;;5.45;;
45905;SDS011;31619;49.008;12.106;2022-07-22T11:19:31;6.95;;;5.50;;
45905;SDS011;31619;49.008;12.106;2022-07-22T11:22:05;5.75;;;5.25;;
45905;SDS011;31619;49.008;12.106;2022-07-22T11:24:32;6.00;;;5.50;;
45905;SDS011;31619;49.008;12.106;2022-07-22T11:26:59;5.47;;;5.03;;
45905;SDS011;31619;49.008;12.106;2022-07-22T11:29:26;6.25;;;5.32;;
45905;SDS011;31619;49.008;12.106;2022-07-22T11:31:54;5.18;;;4.78;;
45905;SDS011;31619;49.008;12.106;2022-07-22T11:34:21;5.82;;;5.43;;
45905;SDS011;31619;49.008;12.106;2022-07-22T11:36:48;5.55;;;5.15;;
45905;SDS011;31619;49.008;12.106;2022-07-22T11:39:17;6.80;;;5.50;;
45905;SDS011;31619;49.008;12.106;2022-07-22T11:41:44;6.50;;;5.43;;
45905;SDS011;31619;49.008;12.106;2022-07-22T11:44:10;6.20;;;5.80;;
45905;SDS011;31619;49.008;12.106;2022-07-22T11:46:39;5.85;;;5.45;;
45905;SDS011;31619;49.008;12.106;2022-07-22T11:49:06;5.88;;;5.47;;
45905;SDS011;31619;49.008;12.106;2022-07-22T11:51:33;5.80;;;5.30;;
45905;SDS011;31619;49.008;12.106;2022-07-22T11:54:00;5.78;;;5.28;;
45905;SDS011;31619;49.008;12.106;2022-07-22T11:56:27;6.75;;;6.20;;
45905;SDS011;31619;49.008;12.106;2022-07-22T11:58:53;10.60;;;6.30;;
45905;SDS011;31619;49.008;12.106;2022-07-22T12:01:24;5.95;;;5.57;;
45905;SDS011;31619;49.008;12.106;2022-07-22T12:03:56;6.53;;;6.13;;
45905;SDS011;31619;49.008;12.106;2022-07-22T12:06:24;6.10;;;5.80;;
45905;SDS011;31619;49.008;12.106;2022-07-22T12:08:55;7.07;;;6.43;;
45905;SDS011;31619;49.008;12.106;2022-07-22T12:11:27;6.72;;;6.22;;
45905;SDS011;31619;49.008;12.106;2022-07-22T12:13:53;7.03;;;6.53;;
45905;SDS011;31619;49.008;12.106;2022-07-22T12:16:20;7.00;;;6.50;;
45905;SDS011;31619;49.008;12.106;2022-07-22T12:21:17;7.00;;;6.43;;
45905;SDS011;31619;49.008;12.106;2022-07-22T12:23:50;6.70;;;6.30;;
45905;SDS011;31619;49.008;12.106;2022-07-22T12:26:17;6.82;;;6.38;;
45905;SDS011;31619;49.008;12.106;2022-07-22T12:28:43;6.38;;;5.88;;
45905;SDS011;31619;49.008;12.106;2022-07-22T12:31:08;6.85;;;6.25;;
45905;SDS011;31619;49.008;12.106;2022-07-22T12:33:34;6.95;;;6.45;;
45905;SDS011;31619;49.008;12.106;2022-07-22T12:36:04;7.60;;;6.93;;
45905;SDS011;31619;49.008;12.106;2022-07-22T12:38:31;7.03;;;6.60;;
45905;SDS011;31619;49.008;12.106;2022-07-22T12:41:20;6.40;;;5.88;;
45905;SDS011;31619;49.008;12.106;2022-07-22T12:43:48;5.40;;;5.00;;
45905;SDS011;31619;49.008;12.106;2022-07-22T12:46:14;5.60;;;5.13;;
45905;SDS011;31619;49.008;12.106;2022-07-22T12:48:48;5.28;;;4.78;;
45905;SDS011;31619;49.008;12.106;2022-07-22T12:51:17;5.50;;;5.00;;
45905;SDS011;31619;49.008;12.106;2022-07-22T12:53:43;4.57;;;4.28;;
45905;SDS011;31619;49.008;12.106;2022-07-22T12:56:09;5.13;;;4.57;;
45905;SDS011;31619;49.008;12.106;2022-07-22T12:58:35;4.80;;;4.43;;
45905;SDS011;31619;49.008;12.106;2022-07-22T13:01:02;5.03;;;4.65;;
45905;SDS011;31619;49.008;12.106;2022-07-22T13:03:29;4.85;;;4.55;;
45905;SDS011;31619;49.008;12.106;2022-07-22T13:05:58;4.70;;;4.28;;
45905;SDS011;31619;49.008;12.106;2022-07-22T13:08:26;4.30;;;3.97;;
45905;SDS011;31619;49.008;12.106;2022-07-22T13:10:52;5.15;;;4.60;;
45905;SDS011;31619;49.008;12.106;2022-07-22T13:13:19;4.95;;;4.55;;
45905;SDS011;31619;49.008;12.106;2022-07-22T13:15:45;4.80;;;4.40;;
45905;SDS011;31619;49.008;12.106;2022-07-22T13:18:11;4.18;;;3.88;;
45905;SDS011;31619;49.008;12.106;2022-07-22T13:20:37;4.63;;;4.32;;
45905;SDS011;31619;49.008;12.106;2022-07-22T13:23:03;4.43;;;4.22;;
45905;SDS011;31619;49.008;12.106;2022-07-22T13:25:29;4.55;;;4.25;;
45905;SDS011;31619;49.008;12.106;2022-07-22T13:27:55;5.38;;;5.07;;
45905;SDS011;31619;49.008;12.106;2022-07-22T13:30:21;5.25;;;4.85;;
45905;SDS011;31619;49.008;12.106;2022-07-22T13:32:47;5.43;;;4.80;;
45905;SDS011;31619;49.008;12.106;2022-07-22T13:35:12;5.35;;;4.68;;
45905;SDS011;31619;49.008;12.106;2022-07-22T13:37:38;4.85;;;4.55;;
45905;SDS011;31619;49.008;12.106;2022-07-22T13:40:04;4.57;;;4.18;;
45905;SDS011;31619;49.008;12.106;2022-07-22T13:42:30;4.38;;;4.18;;
45905;SDS011;31619;49.008;12.106;2022-07-22T13:44:56;4.90;;;4.18;;
45905;SDS011;31619;49.008;12.106;2022-07-22T13:47:21;4.47;;;4.07;;
45905;SDS011;31619;49.008;12.106;2022-07-22T13:49:47;4.18;;;3.97;;
45905;SDS011;31619;49.008;12.106;2022-07-22T13:52:14;4.55;;;4.25;;
45905;SDS011;31619;49.008;12.106;2022-07-22T13:54:40;4.72;;;4.45;;
45905;SDS011;31619;49.008;12.106;2022-07-22T13:57:06;4.68;;;4.38;;
45905;SDS011;31619;49.008;12.106;2022-07-22T13:59:33;5.18;;;4.20;;
45905;SDS011;31619;49.008;12.106;2022-07-22T14:01:59;4.50;;;4.20;;
45905;SDS011;31619;49.008;12.106;2022-07-22T14:04:26;4.38;;;4.10;;
45905;SDS011;31619;49.008;12.106;2022-07-22T14:06:51;4.25;;;3.95;;
45905;SDS011;31619;49.008;12.106;2022-07-22T14:09:18;4.10;;;3.80;;
45905;SDS011;31619;49.008;12.106;2022-07-22T14:11:43;4.10;;;3.80;;
45905;SDS011;31619;49.008;12.106;2022-07-22T14:14:09;3.88;;;3.58;;
45905;SDS011;31619;49.008;12.106;2022-07-22T14:16:35;4.20;;;3.90;;
45905;SDS011;31619;49.008;12.106;2022-07-22T14:19:02;3.20;;;3.10;;
45905;SDS011;31619;49.008;12.106;2022-07-22T14:21:33;3.75;;;3.53;;
45905;SDS011;31619;49.008;12.106;2022-07-22T14:23:59;3.22;;;3.03;;
45905;SDS011;31619;49.008;12.106;2022-07-22T14:26:26;3.70;;;2.95;;
45905;SDS011;31619;49.008;12.106;2022-07-22T14:28:52;3.47;;;2.95;;
45905;SDS011;31619;49.008;12.106;2022-07-22T14:31:18;5.88;;;3.33;;